createdAt,value
2024-05-09T00:00:42.220Z,4.20
2024-05-09T00:03:11.008Z,3.60
2024-05-09T00:05:40.728Z,3.00
2024-05-09T00:08:08.959Z,4.40
2024-05-09T00:10:38.439Z,4.50
2024-05-09T00:13:07.667Z,4.10
2024-05-09T00:15:35.647Z,4.20
2024-05-09T00:18:04.176Z,3.70
2024-05-09T00:20:37.920Z,4.10
2024-05-09T00:23:12.731Z,2.90
2024-05-09T00:28:12.399Z,4.30
2024-05-09T00:33:08.161Z,3.40
2024-05-09T00:35:36.659Z,3.10
2024-05-09T00:38:04.503Z,4.50
2024-05-09T00:43:10.835Z,3.10
2024-05-09T00:48:08.425Z,4.00
2024-05-09T00:50:39.774Z,3.20
2024-05-09T00:53:08.066Z,3.70
2024-05-09T01:00:38.832Z,3.60
2024-05-09T01:08:07.815Z,4.40
2024-05-09T01:10:36.425Z,5.20
2024-05-09T01:13:04.747Z,5.20
2024-05-09T01:15:31.945Z,4.50
2024-05-09T01:18:01.406Z,3.40
2024-05-09T01:20:39.105Z,3.80
2024-05-09T01:23:10.208Z,4.30
2024-05-09T01:25:38.297Z,3.50
2024-05-09T01:28:05.831Z,5.50
2024-05-09T01:30:36.359Z,4.30
2024-05-09T01:33:08.074Z,5.20
2024-05-09T01:35:37.466Z,4.00
2024-05-09T01:38:05.104Z,4.10
2024-05-09T01:40:37.771Z,3.50
2024-05-09T01:43:11.126Z,4.50
2024-05-09T01:45:40.310Z,4.10
2024-05-09T01:48:10.364Z,4.70
2024-05-09T01:53:15.020Z,3.60
2024-05-09T01:58:10.208Z,2.30
2024-05-09T02:00:41.069Z,5.40
2024-05-09T02:03:14.740Z,4.70
2024-05-09T02:08:17.600Z,4.30
2024-05-09T02:13:13.774Z,5.90
2024-05-09T02:15:40.686Z,4.70
2024-05-09T02:18:08.173Z,4.90
2024-05-09T02:20:37.741Z,4.00
2024-05-09T02:23:06.209Z,4.50
2024-05-09T02:25:34.101Z,5.20
2024-05-09T02:32:58.317Z,5.90
2024-05-09T02:35:26.458Z,5.80
2024-05-09T02:37:53.450Z,4.80
2024-05-09T02:40:28.304Z,4.80
2024-05-09T02:43:00.991Z,4.80
2024-05-09T02:45:27.894Z,4.20
2024-05-09T02:47:54.855Z,4.50
2024-05-09T02:53:04.142Z,4.20
2024-05-09T02:55:31.342Z,4.40
2024-05-09T03:00:34.275Z,5.10
2024-05-09T03:03:08.326Z,4.50
2024-05-09T03:08:04.728Z,4.70
2024-05-09T03:10:36.272Z,5.00
2024-05-09T03:13:09.263Z,4.70
2024-05-09T03:15:36.874Z,5.00
2024-05-09T03:18:05.407Z,5.20
2024-05-09T03:20:35.469Z,3.10
2024-05-09T03:23:05.193Z,5.50
2024-05-09T03:25:32.709Z,3.20
2024-05-09T03:27:59.801Z,4.90
2024-05-09T03:33:18.777Z,5.70
2024-05-09T03:35:47.554Z,4.30
2024-05-09T03:38:15.060Z,4.90
2024-05-09T03:40:46.775Z,6.00
2024-05-09T03:43:14.603Z,4.10
2024-05-09T03:45:45.601Z,4.10
2024-05-09T03:48:14.033Z,3.00
2024-05-09T03:50:41.896Z,4.70
2024-05-09T03:53:13.781Z,4.40
2024-05-09T03:55:41.027Z,4.80
2024-05-09T03:58:08.519Z,4.80
2024-05-09T04:00:38.905Z,1.10
2024-05-09T04:05:43.953Z,4.70
2024-05-09T04:08:12.171Z,5.10
2024-05-09T04:10:39.348Z,4.30
2024-05-09T04:13:06.332Z,2.80
2024-05-09T04:15:33.607Z,4.50
2024-05-09T04:18:01.297Z,3.70
2024-05-09T04:20:37.498Z,1.50
2024-05-09T04:23:10.927Z,3.40
2024-05-09T04:25:38.430Z,4.20
2024-05-09T04:28:07.224Z,4.30
2024-05-09T04:30:38.758Z,2.90
2024-05-09T04:33:14.027Z,4.80
2024-05-09T04:38:10.417Z,3.10
2024-05-09T04:40:38.058Z,4.40
2024-05-09T04:43:06.740Z,5.10
2024-05-09T04:45:34.146Z,5.00
2024-05-09T04:48:01.714Z,3.50
2024-05-09T04:50:35.644Z,4.30
2024-05-09T04:55:33.831Z,4.70
2024-05-09T04:58:00.988Z,5.00
2024-05-09T05:00:35.819Z,62.40
2024-05-09T05:03:07.861Z,60.50
2024-05-09T05:05:40.833Z,33.90
2024-05-09T05:08:19.169Z,10.90
2024-05-09T05:13:18.133Z,5.40
2024-05-09T05:15:47.004Z,11.00
2024-05-09T05:18:18.513Z,4.90
2024-05-09T05:20:45.798Z,3.00
2024-05-09T05:23:15.592Z,3.10
2024-05-09T05:25:43.087Z,1.30
2024-05-09T05:28:10.830Z,4.30
2024-05-09T05:30:39.066Z,4.20
2024-05-09T05:33:07.159Z,4.80
2024-05-09T05:35:35.351Z,3.60
2024-05-09T05:40:36.515Z,4.60
2024-05-09T05:43:10.436Z,0.80
2024-05-09T05:45:39.472Z,4.80
2024-05-09T05:48:07.823Z,5.00
2024-05-09T05:50:37.518Z,2.80
2024-05-09T05:53:07.911Z,4.40
2024-05-09T05:55:42.070Z,5.00
2024-05-09T06:00:40.110Z,1.60
2024-05-09T06:03:10.213Z,4.20
2024-05-09T06:05:44.139Z,3.80
2024-05-09T06:08:11.443Z,2.90
2024-05-09T06:10:40.653Z,3.30
2024-05-09T06:15:39.452Z,4.30
2024-05-09T06:18:08.392Z,3.90
2024-05-09T06:20:37.954Z,4.20
2024-05-09T06:23:06.856Z,1.40
2024-05-09T06:28:02.459Z,4.30
2024-05-09T06:33:10.235Z,3.00
2024-05-09T06:35:38.683Z,0.90
2024-05-09T06:38:08.625Z,3.20
2024-05-09T06:43:15.551Z,2.60
2024-05-09T06:45:46.082Z,1.20
2024-05-09T06:58:11.452Z,3.40
2024-05-09T07:00:41.077Z,2.30
2024-05-09T07:03:12.280Z,3.40
2024-05-09T07:05:40.911Z,4.00
2024-05-09T07:10:36.482Z,3.60
2024-05-09T07:13:15.058Z,3.50
2024-05-09T07:18:11.981Z,4.30
2024-05-09T07:20:40.256Z,4.20
2024-05-09T07:23:12.040Z,5.20
2024-05-09T07:25:40.628Z,3.70
2024-05-09T07:28:14.541Z,5.40
2024-05-09T07:30:42.134Z,2.40
2024-05-09T07:33:09.262Z,4.90
2024-05-09T07:35:36.466Z,1.50
2024-05-09T07:38:03.851Z,3.60
2024-05-09T07:40:35.911Z,4.00
2024-05-09T07:43:08.194Z,3.30
2024-05-09T07:53:36.861Z,3.10
2024-05-09T07:55:56.803Z,2.90
2024-05-09T07:58:28.033Z,3.50
2024-05-09T08:00:55.312Z,3.80
2024-05-09T08:03:22.783Z,3.60
2024-05-09T08:05:51.785Z,3.70
2024-05-09T08:08:18.779Z,3.40
2024-05-09T08:10:46.582Z,1.30
2024-05-09T08:13:13.790Z,3.90
2024-05-09T08:15:40.781Z,2.30
2024-05-09T08:18:09.516Z,3.80
2024-05-09T08:20:38.563Z,2.90
2024-05-09T08:25:32.667Z,2.60
2024-05-09T08:30:33.474Z,3.00
2024-05-09T08:33:05.856Z,3.00
2024-05-09T08:35:33.690Z,2.60
2024-05-09T08:38:03.151Z,1.40
2024-05-09T08:40:35.399Z,2.00
2024-05-09T08:43:10.286Z,2.40
2024-05-09T08:45:42.299Z,2.90
2024-05-09T08:48:12.796Z,2.70
2024-05-09T08:50:41.656Z,2.50
2024-05-09T08:53:09.288Z,2.80
2024-05-09T08:55:40.553Z,2.60
2024-05-09T08:58:17.364Z,2.40
2024-05-09T09:00:46.190Z,2.70
2024-05-09T09:03:18.800Z,2.40
2024-05-09T09:05:54.902Z,3.10
2024-05-09T09:08:22.743Z,2.30
2024-05-09T09:10:53.876Z,2.10
2024-05-09T09:13:20.786Z,2.40
2024-05-09T09:15:51.076Z,1.70
2024-05-09T09:18:18.689Z,2.50
2024-05-09T09:20:46.191Z,2.10
2024-05-09T09:25:40.876Z,1.00
2024-05-09T09:28:08.970Z,1.80
2024-05-09T09:30:43.352Z,2.10
2024-05-09T09:33:10.863Z,2.10
2024-05-09T09:35:40.263Z,1.90
2024-05-09T09:38:08.213Z,2.60
2024-05-09T09:40:42.509Z,1.90
2024-05-09T09:43:22.741Z,2.00
2024-05-09T09:45:52.632Z,2.40
2024-05-09T09:48:21.461Z,0.90
2024-05-09T09:50:51.956Z,1.80
2024-05-09T09:53:19.763Z,1.90
2024-05-09T09:55:48.353Z,2.20
2024-05-09T09:58:17.548Z,2.20
2024-05-09T10:00:45.369Z,2.00
2024-05-09T10:03:12.850Z,2.30
2024-05-09T10:05:43.071Z,1.80
2024-05-09T10:08:13.176Z,2.80
2024-05-09T10:10:45.723Z,2.70
2024-05-09T10:13:13.060Z,2.30
2024-05-09T10:15:53.840Z,2.20
2024-05-09T10:18:27.302Z,1.60
2024-05-09T10:20:56.360Z,2.00
2024-05-09T10:23:32.443Z,1.80
2024-05-09T10:26:05.896Z,1.20
2024-05-09T10:28:35.546Z,2.40
2024-05-09T10:31:15.040Z,2.30
2024-05-09T10:33:49.082Z,2.40
2024-05-09T10:36:24.570Z,2.50
2024-05-09T10:38:56.123Z,2.70
2024-05-09T10:41:24.437Z,2.40
2024-05-09T10:43:52.244Z,2.50
2024-05-09T10:46:20.312Z,2.20
2024-05-09T10:48:48.643Z,2.40
2024-05-09T10:51:17.172Z,2.60
2024-05-09T10:53:45.564Z,2.60
2024-05-09T10:56:17.612Z,2.40
2024-05-09T11:01:13.458Z,2.30
2024-05-09T11:03:41.818Z,2.50
2024-05-09T11:06:11.566Z,2.30
2024-05-09T11:08:39.255Z,2.20
2024-05-09T11:11:08.854Z,1.70
2024-05-09T11:13:38.802Z,2.10
2024-05-09T11:16:26.152Z,2.60
2024-05-09T11:18:55.766Z,2.40
2024-05-09T11:21:23.178Z,2.10
2024-05-09T11:23:50.844Z,1.90
2024-05-09T11:26:19.843Z,2.00
2024-05-09T11:28:47.023Z,2.60
2024-05-09T11:31:14.045Z,2.00
2024-05-09T11:33:48.263Z,2.00
2024-05-09T11:36:16.083Z,3.10
2024-05-09T11:38:43.364Z,3.00
2024-05-09T11:41:18.690Z,2.60
2024-05-09T11:46:13.836Z,2.00
2024-05-09T11:48:41.148Z,2.70
2024-05-09T11:51:08.257Z,3.00
2024-05-09T11:54:09.902Z,2.30
2024-05-09T11:56:36.819Z,1.90
2024-05-09T11:59:03.788Z,1.30
2024-05-09T12:01:30.852Z,2.80
2024-05-09T12:03:58.329Z,2.90
2024-05-09T12:06:25.643Z,2.70
2024-05-09T12:08:52.575Z,2.10
2024-05-09T12:11:19.469Z,2.50
2024-05-09T12:13:46.278Z,2.30
2024-05-09T12:16:13.170Z,2.10
2024-05-09T12:18:40.020Z,3.20
2024-05-09T12:21:06.788Z,2.30
2024-05-09T12:23:33.511Z,2.40
2024-05-09T12:26:00.326Z,2.30
2024-05-09T12:28:27.176Z,2.80
2024-05-09T12:30:54.068Z,2.70
2024-05-09T12:33:21.696Z,2.80
2024-05-09T12:35:50.859Z,2.40
2024-05-09T12:38:18.576Z,2.20
2024-05-09T12:40:45.365Z,2.50
2024-05-09T12:43:13.733Z,2.70
2024-05-09T12:45:40.771Z,2.40
2024-05-09T12:48:11.908Z,1.60
2024-05-09T12:53:06.503Z,1.40
2024-05-09T12:55:41.299Z,2.90
2024-05-09T12:58:18.663Z,1.70
2024-05-09T13:00:46.395Z,1.70
2024-05-09T13:03:13.834Z,2.50
2024-05-09T13:05:41.341Z,2.20
2024-05-09T13:08:08.629Z,2.20
2024-05-09T13:10:35.880Z,2.50
2024-05-09T13:13:05.590Z,2.30
2024-05-09T13:15:42.712Z,2.60
2024-05-09T13:18:09.905Z,2.50
2024-05-09T13:20:37.152Z,0.10
2024-05-09T13:23:06.712Z,2.70
2024-05-09T13:25:35.156Z,2.60
2024-05-09T13:28:03.759Z,2.00
2024-05-09T13:30:39.060Z,2.50
2024-05-09T13:33:11.274Z,1.00
2024-05-09T13:35:39.806Z,1.50
2024-05-09T13:38:07.575Z,1.90
2024-05-09T13:40:36.180Z,1.90
2024-05-09T13:43:06.810Z,1.40
2024-05-09T13:45:34.941Z,2.00
2024-05-09T13:48:03.523Z,2.10
2024-05-09T13:50:34.760Z,1.40
2024-05-09T13:53:05.370Z,1.90
2024-05-09T13:55:33.448Z,2.00
2024-05-09T13:58:01.226Z,2.50
2024-05-09T14:00:41.444Z,2.30
2024-05-09T14:03:14.046Z,1.90
2024-05-09T14:05:41.485Z,1.50
2024-05-09T14:08:08.825Z,2.10
2024-05-09T14:10:35.826Z,1.90
2024-05-09T14:13:02.846Z,1.80
2024-05-09T14:15:30.103Z,2.20
2024-05-09T14:17:57.271Z,1.80
2024-05-09T14:20:30.848Z,2.00
2024-05-09T14:23:01.977Z,2.50
2024-05-09T14:25:30.330Z,1.80
2024-05-09T14:27:58.164Z,1.50
2024-05-09T14:30:34.491Z,2.10
2024-05-09T14:33:05.846Z,2.00
2024-05-09T14:35:33.668Z,2.10
2024-05-09T14:38:00.629Z,2.20
2024-05-09T14:40:37.100Z,1.50
2024-05-09T14:43:14.538Z,2.10
2024-05-09T14:45:42.184Z,1.30
2024-05-09T14:48:09.585Z,2.20
2024-05-09T14:50:39.266Z,2.20
2024-05-09T14:53:09.439Z,1.90
2024-05-09T14:55:38.790Z,2.40
2024-05-09T15:00:41.318Z,1.90
2024-05-09T15:05:39.075Z,1.30
2024-05-09T15:08:07.836Z,1.50
2024-05-09T15:10:37.955Z,1.80
2024-05-09T15:13:07.047Z,1.60
2024-05-09T15:15:35.582Z,2.00
2024-05-09T15:18:06.605Z,1.30
2024-05-09T15:20:36.932Z,1.90
2024-05-09T15:23:05.518Z,2.00
2024-05-09T15:25:33.837Z,2.20
2024-05-09T15:28:00.902Z,2.00
2024-05-09T15:30:31.122Z,2.40
2024-05-09T15:33:01.233Z,2.20
2024-05-09T15:35:29.168Z,2.60
2024-05-09T15:37:56.586Z,2.40
2024-05-09T15:40:34.461Z,2.30
2024-05-09T15:43:06.721Z,2.70
2024-05-09T15:45:34.457Z,2.40
2024-05-09T15:48:02.601Z,1.80
2024-05-09T15:50:36.940Z,2.20
2024-05-09T15:53:08.720Z,2.10
2024-05-09T15:55:36.528Z,2.80
2024-05-09T15:58:05.040Z,2.30
2024-05-09T16:00:39.206Z,2.20
2024-05-09T16:03:15.824Z,1.90
2024-05-09T16:05:48.745Z,3.50
2024-05-09T16:08:16.300Z,3.20
2024-05-09T16:10:46.051Z,2.20
2024-05-09T16:13:14.718Z,2.30
2024-05-09T16:15:43.605Z,2.20
2024-05-09T16:18:10.806Z,2.90
2024-05-09T16:20:41.750Z,2.50
2024-05-09T16:23:10.711Z,2.40
2024-05-09T16:25:38.998Z,2.10
2024-05-09T16:28:09.012Z,2.60
2024-05-09T16:30:41.325Z,2.60
2024-05-09T16:33:08.992Z,2.60
2024-05-09T16:35:37.283Z,2.20
2024-05-09T16:38:04.847Z,2.20
2024-05-09T16:40:39.032Z,1.90
2024-05-09T16:43:09.111Z,2.10
2024-05-09T16:45:37.685Z,2.80
2024-05-09T16:48:06.295Z,2.50
2024-05-09T16:50:35.029Z,2.50
2024-05-09T16:53:04.501Z,2.80
2024-05-09T16:55:32.150Z,2.10
2024-05-09T16:58:00.534Z,2.50
2024-05-09T17:00:38.140Z,2.10
2024-05-09T17:03:11.232Z,2.20
2024-05-09T17:05:39.425Z,2.50
2024-05-09T17:08:07.332Z,1.50
2024-05-09T17:10:35.949Z,2.00
2024-05-09T17:13:04.973Z,2.50
2024-05-09T17:15:33.963Z,2.40
2024-05-09T17:18:03.334Z,2.50
2024-05-09T17:20:34.559Z,2.50
2024-05-09T17:23:05.360Z,2.40
2024-05-09T17:25:34.123Z,2.60
2024-05-09T17:28:07.003Z,2.50
2024-05-09T17:30:38.345Z,2.20
2024-05-09T17:33:09.104Z,2.80
2024-05-09T17:38:07.616Z,1.70
2024-05-09T17:40:37.004Z,2.70
2024-05-09T17:43:07.067Z,2.40
2024-05-09T17:45:40.692Z,2.30
2024-05-09T17:48:09.569Z,2.40
2024-05-09T17:50:37.950Z,2.50
2024-05-09T17:53:06.541Z,2.50
2024-05-09T17:55:34.002Z,2.40
2024-05-09T17:58:01.762Z,2.30
2024-05-09T18:00:36.854Z,2.90
2024-05-09T18:03:08.191Z,2.60
2024-05-09T18:05:36.736Z,2.40
2024-05-09T18:08:05.271Z,3.00
2024-05-09T18:10:36.834Z,2.50
2024-05-09T18:13:08.226Z,2.00
2024-05-09T18:15:35.625Z,1.90
2024-05-09T18:18:03.274Z,2.40
2024-05-09T18:20:39.374Z,3.80
2024-05-09T18:23:10.870Z,2.50
2024-05-09T18:25:37.773Z,2.50
2024-05-09T18:28:05.736Z,3.60
2024-05-09T18:30:48.345Z,2.50
2024-05-09T18:33:17.038Z,7.60
2024-05-09T18:35:45.187Z,16.70
2024-05-09T18:38:12.688Z,14.50
2024-05-09T18:40:41.166Z,8.50
2024-05-09T18:43:10.533Z,8.20
2024-05-09T18:45:38.446Z,5.90
2024-05-09T18:48:07.356Z,8.00
2024-05-09T18:50:38.589Z,4.40
2024-05-09T18:53:08.342Z,13.50
2024-05-09T18:55:35.604Z,6.70
2024-05-09T18:58:03.705Z,4.80
2024-05-09T19:00:35.349Z,7.10
2024-05-09T19:03:11.252Z,6.40
2024-05-09T19:05:40.994Z,9.20
2024-05-09T19:08:08.847Z,6.60
2024-05-09T19:10:38.445Z,6.90
2024-05-09T19:13:09.254Z,7.70
2024-05-09T19:18:07.543Z,6.50
2024-05-09T19:20:36.385Z,6.30
2024-05-09T19:23:05.354Z,4.60
2024-05-09T19:25:33.033Z,4.10
2024-05-09T19:28:00.411Z,3.90
2024-05-09T19:30:36.701Z,3.20
2024-05-09T19:33:08.723Z,3.60
2024-05-09T19:35:36.230Z,3.30
2024-05-09T19:38:03.284Z,2.80
2024-05-09T19:40:32.466Z,3.60
2024-05-09T19:43:02.581Z,3.60
2024-05-09T19:45:30.308Z,3.80
2024-05-09T19:47:57.619Z,3.60
2024-05-09T19:50:32.446Z,2.90
2024-05-09T19:53:09.874Z,3.30
2024-05-09T19:55:37.046Z,4.90
2024-05-09T19:58:05.613Z,4.10
2024-05-09T20:00:36.806Z,4.40
2024-05-09T20:05:33.446Z,7.10
2024-05-09T20:10:32.463Z,9.10
2024-05-09T20:13:02.626Z,5.70
2024-05-09T20:15:29.800Z,5.60
2024-05-09T20:17:56.879Z,4.20
2024-05-09T20:20:32.811Z,4.00
2024-05-09T20:23:06.051Z,3.40
2024-05-09T20:26:05.832Z,3.30
2024-05-09T20:28:37.184Z,3.50
2024-05-09T20:31:04.510Z,3.60
2024-05-09T20:33:31.364Z,2.90
2024-05-09T20:36:00.519Z,6.10
2024-05-09T20:38:28.569Z,6.80
2024-05-09T20:43:23.033Z,5.20
2024-05-09T20:45:49.821Z,5.40
2024-05-09T20:48:16.791Z,7.90
2024-05-09T20:50:43.867Z,8.10
2024-05-09T20:53:12.495Z,9.70
2024-05-09T20:55:40.606Z,10.70
2024-05-09T20:58:10.511Z,6.70
2024-05-09T21:00:42.727Z,3.60
2024-05-09T21:03:13.479Z,4.90
2024-05-09T21:05:43.161Z,5.20
2024-05-09T21:08:10.228Z,4.10
2024-05-09T21:10:37.732Z,3.90
2024-05-09T21:13:05.876Z,3.10
2024-05-09T21:15:33.767Z,2.70
2024-05-09T21:20:31.568Z,3.20
2024-05-09T21:23:01.289Z,2.50
2024-05-09T21:25:28.545Z,2.70
2024-05-09T21:27:55.621Z,2.20
2024-05-09T21:30:32.178Z,3.40
2024-05-09T21:33:13.172Z,3.10
2024-05-09T21:38:08.461Z,4.30
2024-05-09T21:40:37.351Z,3.00
2024-05-09T21:43:06.724Z,3.20
2024-05-09T21:45:35.012Z,2.10
2024-05-09T21:48:07.778Z,3.90
2024-05-09T21:50:40.115Z,4.70
2024-05-09T21:53:10.508Z,3.50
2024-05-09T21:55:37.544Z,4.10
2024-05-09T21:58:04.648Z,4.90
2024-05-09T22:00:36.938Z,3.50
2024-05-09T22:03:10.675Z,3.70
2024-05-09T22:05:41.452Z,3.30
2024-05-09T22:08:08.279Z,2.80
2024-05-09T22:10:36.653Z,3.10
2024-05-09T22:13:05.691Z,4.70
2024-05-09T22:18:07.318Z,4.40
2024-05-09T22:20:38.296Z,4.70
2024-05-09T22:23:08.387Z,4.30
2024-05-09T22:25:36.935Z,4.00
2024-05-09T22:28:04.428Z,1.10
2024-05-09T22:30:36.598Z,4.20
2024-05-09T22:33:10.966Z,3.90
2024-05-09T22:35:40.082Z,4.30
2024-05-09T22:38:06.987Z,3.60
2024-05-09T22:40:43.324Z,3.70
2024-05-09T22:43:23.223Z,3.90
2024-05-09T22:45:54.271Z,4.70
2024-05-09T22:48:21.709Z,1.30
2024-05-09T22:50:48.790Z,5.30
2024-05-09T22:53:15.679Z,7.90
2024-05-09T22:55:42.604Z,7.40
2024-05-09T22:58:09.636Z,6.00
2024-05-09T23:00:38.846Z,4.30
2024-05-09T23:03:06.307Z,4.00
2024-05-09T23:05:33.512Z,3.10
2024-05-09T23:08:02.059Z,6.70
2024-05-09T23:10:35.557Z,4.30
2024-05-09T23:15:34.054Z,4.10
2024-05-09T23:18:01.204Z,4.10
2024-05-09T23:20:36.240Z,3.40
2024-05-09T23:23:07.003Z,3.10
2024-05-09T23:25:34.624Z,3.10
2024-05-09T23:28:01.702Z,3.20
2024-05-09T23:30:36.261Z,3.60
2024-05-09T23:33:06.943Z,3.60
2024-05-09T23:35:33.941Z,4.30
2024-05-09T23:38:00.782Z,6.60
2024-05-09T23:40:37.426Z,13.40
2024-05-09T23:43:11.259Z,12.00
2024-05-09T23:45:38.932Z,11.30
2024-05-09T23:48:06.591Z,10.60
2024-05-09T23:50:36.698Z,10.30
2024-05-09T23:53:07.505Z,10.10
2024-05-09T23:58:02.512Z,8.20
